sensor_id;sensor_type;location;lat;lon;timestamp;P1;durP1;ratioP1;P2;durP2;ratioP2
6051;SDS011;3054;51.204;4.430;2022-09-09T00:00:16;10.20;;;3.10;;
6051;SDS011;3054;51.204;4.430;2022-09-09T00:05:37;12.53;;;2.83;;
6051;SDS011;3054;51.204;4.430;2022-09-09T00:08:12;7.17;;;2.93;;
6051;SDS011;3054;51.204;4.430;2022-09-09T00:10:45;5.70;;;2.80;;
6051;SDS011;3054;51.204;4.430;2022-09-09T00:13:19;4.97;;;2.67;;
6051;SDS011;3054;51.204;4.430;2022-09-09T00:15:54;4.47;;;2.47;;
6051;SDS011;3054;51.204;4.430;2022-09-09T00:18:28;5.27;;;2.53;;
6051;SDS011;3054;51.204;4.430;2022-09-09T00:21:05;4.60;;;2.57;;
6051;SDS011;3054;51.204;4.430;2022-09-09T00:23:34;5.30;;;2.40;;
6051;SDS011;3054;51.204;4.430;2022-09-09T00:26:05;9.80;;;2.67;;
6051;SDS011;3054;51.204;4.430;2022-09-09T00:28:39;8.10;;;3.23;;
6051;SDS011;3054;51.204;4.430;2022-09-09T00:31:12;6.30;;;2.47;;
6051;SDS011;3054;51.204;4.430;2022-09-09T00:33:42;10.60;;;2.90;;
6051;SDS011;3054;51.204;4.430;2022-09-09T00:36:11;3.80;;;1.97;;
6051;SDS011;3054;51.204;4.430;2022-09-09T00:38:42;6.93;;;2.43;;
6051;SDS011;3054;51.204;4.430;2022-09-09T00:41:11;3.80;;;2.67;;
6051;SDS011;3054;51.204;4.430;2022-09-09T00:43:56;7.57;;;2.30;;
6051;SDS011;3054;51.204;4.430;2022-09-09T00:46:36;4.17;;;2.50;;
6051;SDS011;3054;51.204;4.430;2022-09-09T00:49:14;8.13;;;2.20;;
6051;SDS011;3054;51.204;4.430;2022-09-09T00:51:52;3.30;;;1.90;;
6051;SDS011;3054;51.204;4.430;2022-09-09T00:54:32;8.10;;;2.30;;
6051;SDS011;3054;51.204;4.430;2022-09-09T00:57:13;20.27;;;2.20;;
6051;SDS011;3054;51.204;4.430;2022-09-09T00:59:59;9.33;;;2.17;;
6051;SDS011;3054;51.204;4.430;2022-09-09T01:02:45;5.33;;;1.93;;
6051;SDS011;3054;51.204;4.430;2022-09-09T01:05:22;12.17;;;2.17;;
6051;SDS011;3054;51.204;4.430;2022-09-09T01:07:55;6.70;;;1.80;;
6051;SDS011;3054;51.204;4.430;2022-09-09T01:10:30;4.60;;;1.50;;
6051;SDS011;3054;51.204;4.430;2022-09-09T01:13:08;5.40;;;2.17;;
6051;SDS011;3054;51.204;4.430;2022-09-09T01:15:41;4.77;;;2.23;;
6051;SDS011;3054;51.204;4.430;2022-09-09T01:18:11;5.30;;;2.17;;
6051;SDS011;3054;51.204;4.430;2022-09-09T01:20:45;5.10;;;2.20;;
6051;SDS011;3054;51.204;4.430;2022-09-09T01:29:01;5.70;;;1.70;;
6051;SDS011;3054;51.204;4.430;2022-09-09T01:31:34;8.63;;;2.30;;
6051;SDS011;3054;51.204;4.430;2022-09-09T01:34:07;5.00;;;1.97;;
6051;SDS011;3054;51.204;4.430;2022-09-09T01:36:37;3.27;;;1.80;;
6051;SDS011;3054;51.204;4.430;2022-09-09T01:39:08;7.73;;;2.40;;
6051;SDS011;3054;51.204;4.430;2022-09-09T01:41:37;4.17;;;2.40;;
6051;SDS011;3054;51.204;4.430;2022-09-09T01:44:04;4.20;;;2.30;;
6051;SDS011;3054;51.204;4.430;2022-09-09T01:46:32;6.63;;;2.50;;
6051;SDS011;3054;51.204;4.430;2022-09-09T01:48:59;5.17;;;2.77;;
6051;SDS011;3054;51.204;4.430;2022-09-09T01:51:28;4.53;;;2.03;;
6051;SDS011;3054;51.204;4.430;2022-09-09T01:53:55;5.33;;;2.00;;
6051;SDS011;3054;51.204;4.430;2022-09-09T01:56:28;7.60;;;2.10;;
6051;SDS011;3054;51.204;4.430;2022-09-09T01:59:09;8.77;;;2.20;;
6051;SDS011;3054;51.204;4.430;2022-09-09T02:01:53;7.13;;;2.27;;
6051;SDS011;3054;51.204;4.430;2022-09-09T02:04:35;6.60;;;2.57;;
6051;SDS011;3054;51.204;4.430;2022-09-09T02:07:06;6.13;;;2.20;;
6051;SDS011;3054;51.204;4.430;2022-09-09T02:09:40;6.43;;;2.83;;
6051;SDS011;3054;51.204;4.430;2022-09-09T02:12:14;2.40;;;1.80;;
6051;SDS011;3054;51.204;4.430;2022-09-09T02:14:48;2.30;;;1.80;;
6051;SDS011;3054;51.204;4.430;2022-09-09T02:17:20;3.27;;;1.77;;
6051;SDS011;3054;51.204;4.430;2022-09-09T02:19:52;5.63;;;1.90;;
6051;SDS011;3054;51.204;4.430;2022-09-09T02:22:23;8.30;;;2.00;;
6051;SDS011;3054;51.204;4.430;2022-09-09T02:24:53;3.87;;;1.83;;
6051;SDS011;3054;51.204;4.430;2022-09-09T02:27:25;6.27;;;1.87;;
6051;SDS011;3054;51.204;4.430;2022-09-09T02:29:52;6.80;;;2.07;;
6051;SDS011;3054;51.204;4.430;2022-09-09T02:32:23;4.50;;;2.07;;
6051;SDS011;3054;51.204;4.430;2022-09-09T02:34:52;9.00;;;1.93;;
6051;SDS011;3054;51.204;4.430;2022-09-09T02:37:23;5.60;;;1.53;;
6051;SDS011;3054;51.204;4.430;2022-09-09T02:39:54;6.60;;;1.90;;
6051;SDS011;3054;51.204;4.430;2022-09-09T02:42:21;6.27;;;1.80;;
6051;SDS011;3054;51.204;4.430;2022-09-09T02:44:50;8.03;;;1.90;;
6051;SDS011;3054;51.204;4.430;2022-09-09T02:47:20;6.43;;;1.90;;
6051;SDS011;3054;51.204;4.430;2022-09-09T02:49:58;10.57;;;2.13;;
6051;SDS011;3054;51.204;4.430;2022-09-09T02:52:38;7.27;;;1.57;;
6051;SDS011;3054;51.204;4.430;2022-09-09T02:55:16;9.90;;;2.67;;
6051;SDS011;3054;51.204;4.430;2022-09-09T02:57:47;4.30;;;2.30;;
6051;SDS011;3054;51.204;4.430;2022-09-09T03:00:17;6.33;;;2.70;;
6051;SDS011;3054;51.204;4.430;2022-09-09T03:02:49;8.23;;;1.80;;
6051;SDS011;3054;51.204;4.430;2022-09-09T03:05:17;6.63;;;2.20;;
6051;SDS011;3054;51.204;4.430;2022-09-09T03:07:44;8.17;;;2.20;;
6051;SDS011;3054;51.204;4.430;2022-09-09T03:10:12;6.67;;;2.57;;
6051;SDS011;3054;51.204;4.430;2022-09-09T03:12:39;5.90;;;2.03;;
6051;SDS011;3054;51.204;4.430;2022-09-09T03:15:07;6.67;;;2.60;;
6051;SDS011;3054;51.204;4.430;2022-09-09T03:17:36;9.00;;;2.20;;
6051;SDS011;3054;51.204;4.430;2022-09-09T03:20:03;10.60;;;2.03;;
6051;SDS011;3054;51.204;4.430;2022-09-09T03:22:30;5.77;;;2.00;;
6051;SDS011;3054;51.204;4.430;2022-09-09T03:24:57;15.20;;;2.00;;
6051;SDS011;3054;51.204;4.430;2022-09-09T03:27:24;11.87;;;2.30;;
6051;SDS011;3054;51.204;4.430;2022-09-09T03:29:51;4.63;;;2.90;;
6051;SDS011;3054;51.204;4.430;2022-09-09T03:32:19;8.30;;;2.70;;
6051;SDS011;3054;51.204;4.430;2022-09-09T03:34:49;9.80;;;2.50;;
6051;SDS011;3054;51.204;4.430;2022-09-09T03:37:16;8.90;;;2.63;;
6051;SDS011;3054;51.204;4.430;2022-09-09T03:39:43;7.30;;;1.80;;
6051;SDS011;3054;51.204;4.430;2022-09-09T03:42:11;15.30;;;2.80;;
6051;SDS011;3054;51.204;4.430;2022-09-09T03:44:39;10.97;;;2.57;;
6051;SDS011;3054;51.204;4.430;2022-09-09T03:47:07;12.73;;;2.70;;
6051;SDS011;3054;51.204;4.430;2022-09-09T03:49:33;6.90;;;2.17;;
6051;SDS011;3054;51.204;4.430;2022-09-09T03:52:02;11.63;;;2.10;;
6051;SDS011;3054;51.204;4.430;2022-09-09T03:54:29;6.10;;;2.30;;
6051;SDS011;3054;51.204;4.430;2022-09-09T03:56:59;9.17;;;2.77;;
6051;SDS011;3054;51.204;4.430;2022-09-09T03:59:26;13.10;;;2.57;;
6051;SDS011;3054;51.204;4.430;2022-09-09T04:01:52;10.27;;;2.10;;
6051;SDS011;3054;51.204;4.430;2022-09-09T04:04:19;10.17;;;3.00;;
6051;SDS011;3054;51.204;4.430;2022-09-09T04:06:49;7.63;;;2.10;;
6051;SDS011;3054;51.204;4.430;2022-09-09T04:09:17;17.30;;;2.40;;
6051;SDS011;3054;51.204;4.430;2022-09-09T04:11:44;10.10;;;2.70;;
6051;SDS011;3054;51.204;4.430;2022-09-09T04:14:11;7.77;;;2.20;;
6051;SDS011;3054;51.204;4.430;2022-09-09T04:16:38;14.70;;;2.43;;
6051;SDS011;3054;51.204;4.430;2022-09-09T04:19:09;12.63;;;2.37;;
6051;SDS011;3054;51.204;4.430;2022-09-09T04:21:37;7.77;;;2.53;;
6051;SDS011;3054;51.204;4.430;2022-09-09T04:24:05;8.27;;;2.53;;
6051;SDS011;3054;51.204;4.430;2022-09-09T04:26:34;12.60;;;2.30;;
6051;SDS011;3054;51.204;4.430;2022-09-09T04:29:02;8.83;;;2.00;;
6051;SDS011;3054;51.204;4.430;2022-09-09T04:31:29;16.53;;;2.37;;
6051;SDS011;3054;51.204;4.430;2022-09-09T04:33:56;12.70;;;2.77;;
6051;SDS011;3054;51.204;4.430;2022-09-09T04:36:23;8.40;;;2.17;;
6051;SDS011;3054;51.204;4.430;2022-09-09T04:38:50;20.63;;;2.80;;
6051;SDS011;3054;51.204;4.430;2022-09-09T04:41:18;11.17;;;2.37;;
6051;SDS011;3054;51.204;4.430;2022-09-09T04:43:50;12.10;;;3.23;;
6051;SDS011;3054;51.204;4.430;2022-09-09T04:46:17;17.20;;;2.37;;
6051;SDS011;3054;51.204;4.430;2022-09-09T04:48:44;21.17;;;2.80;;
6051;SDS011;3054;51.204;4.430;2022-09-09T04:51:19;14.40;;;3.53;;
6051;SDS011;3054;51.204;4.430;2022-09-09T04:53:46;5.47;;;2.30;;
6051;SDS011;3054;51.204;4.430;2022-09-09T04:56:14;13.93;;;2.23;;
6051;SDS011;3054;51.204;4.430;2022-09-09T04:58:42;9.60;;;1.80;;
6051;SDS011;3054;51.204;4.430;2022-09-09T05:01:11;17.30;;;2.43;;
6051;SDS011;3054;51.204;4.430;2022-09-09T05:03:39;9.80;;;2.43;;
6051;SDS011;3054;51.204;4.430;2022-09-09T05:06:07;11.63;;;3.20;;
6051;SDS011;3054;51.204;4.430;2022-09-09T05:08:36;13.40;;;2.80;;
6051;SDS011;3054;51.204;4.430;2022-09-09T05:11:04;8.33;;;2.20;;
6051;SDS011;3054;51.204;4.430;2022-09-09T05:13:38;14.83;;;3.07;;
6051;SDS011;3054;51.204;4.430;2022-09-09T05:16:05;13.30;;;2.37;;
6051;SDS011;3054;51.204;4.430;2022-09-09T05:18:33;9.80;;;2.30;;
6051;SDS011;3054;51.204;4.430;2022-09-09T05:21:00;25.10;;;3.27;;
6051;SDS011;3054;51.204;4.430;2022-09-09T05:23:27;15.53;;;3.23;;
6051;SDS011;3054;51.204;4.430;2022-09-09T05:25:55;14.43;;;2.20;;
6051;SDS011;3054;51.204;4.430;2022-09-09T05:28:22;10.07;;;2.63;;
6051;SDS011;3054;51.204;4.430;2022-09-09T05:30:56;7.00;;;1.87;;
6051;SDS011;3054;51.204;4.430;2022-09-09T05:36:47;19.70;;;2.73;;
6051;SDS011;3054;51.204;4.430;2022-09-09T05:39:17;11.03;;;2.20;;
6051;SDS011;3054;51.204;4.430;2022-09-09T05:41:44;10.30;;;2.60;;
6051;SDS011;3054;51.204;4.430;2022-09-09T05:44:10;19.33;;;2.83;;
6051;SDS011;3054;51.204;4.430;2022-09-09T05:46:38;12.80;;;1.90;;
6051;SDS011;3054;51.204;4.430;2022-09-09T05:49:05;11.90;;;2.73;;
6051;SDS011;3054;51.204;4.430;2022-09-09T05:51:33;9.03;;;2.27;;
6051;SDS011;3054;51.204;4.430;2022-09-09T05:54:01;15.10;;;2.80;;
6051;SDS011;3054;51.204;4.430;2022-09-09T05:56:28;16.20;;;2.70;;
6051;SDS011;3054;51.204;4.430;2022-09-09T05:58:57;10.30;;;2.33;;
6051;SDS011;3054;51.204;4.430;2022-09-09T06:01:25;11.77;;;3.00;;
6051;SDS011;3054;51.204;4.430;2022-09-09T06:03:53;12.67;;;2.63;;
6051;SDS011;3054;51.204;4.430;2022-09-09T06:06:22;11.70;;;2.73;;
6051;SDS011;3054;51.204;4.430;2022-09-09T06:08:52;7.80;;;1.90;;
6051;SDS011;3054;51.204;4.430;2022-09-09T06:11:23;11.97;;;3.20;;
6051;SDS011;3054;51.204;4.430;2022-09-09T06:13:52;11.97;;;2.30;;
6051;SDS011;3054;51.204;4.430;2022-09-09T06:16:20;11.47;;;2.80;;
6051;SDS011;3054;51.204;4.430;2022-09-09T06:18:49;13.77;;;2.73;;
6051;SDS011;3054;51.204;4.430;2022-09-09T06:21:17;9.73;;;2.17;;
6051;SDS011;3054;51.204;4.430;2022-09-09T06:23:45;16.93;;;3.00;;
6051;SDS011;3054;51.204;4.430;2022-09-09T06:26:13;11.00;;;2.80;;
6051;SDS011;3054;51.204;4.430;2022-09-09T06:28:43;12.10;;;1.90;;
6051;SDS011;3054;51.204;4.430;2022-09-09T06:31:11;11.63;;;2.43;;
6051;SDS011;3054;51.204;4.430;2022-09-09T06:33:40;13.67;;;2.63;;
6051;SDS011;3054;51.204;4.430;2022-09-09T06:36:10;10.37;;;2.20;;
6051;SDS011;3054;51.204;4.430;2022-09-09T06:38:38;15.40;;;2.73;;
6051;SDS011;3054;51.204;4.430;2022-09-09T06:41:06;9.50;;;2.07;;
6051;SDS011;3054;51.204;4.430;2022-09-09T06:43:34;9.07;;;2.57;;
6051;SDS011;3054;51.204;4.430;2022-09-09T06:46:02;21.10;;;3.27;;
6051;SDS011;3054;51.204;4.430;2022-09-09T06:48:31;13.17;;;2.57;;
6051;SDS011;3054;51.204;4.430;2022-09-09T06:51:02;11.30;;;2.70;;
6051;SDS011;3054;51.204;4.430;2022-09-09T06:53:31;11.93;;;2.80;;
6051;SDS011;3054;51.204;4.430;2022-09-09T06:55:59;14.03;;;2.83;;
6051;SDS011;3054;51.204;4.430;2022-09-09T06:58:27;9.53;;;2.20;;
6051;SDS011;3054;51.204;4.430;2022-09-09T07:01:02;15.63;;;2.93;;
6051;SDS011;3054;51.204;4.430;2022-09-09T07:03:30;14.17;;;3.13;;
6051;SDS011;3054;51.204;4.430;2022-09-09T07:05:57;12.83;;;2.87;;
6051;SDS011;3054;51.204;4.430;2022-09-09T07:08:24;9.60;;;2.03;;
6051;SDS011;3054;51.204;4.430;2022-09-09T07:10:51;13.17;;;2.60;;
6051;SDS011;3054;51.204;4.430;2022-09-09T07:13:19;12.60;;;2.60;;
6051;SDS011;3054;51.204;4.430;2022-09-09T07:15:50;13.43;;;2.80;;
6051;SDS011;3054;51.204;4.430;2022-09-09T07:18:18;14.23;;;2.60;;
6051;SDS011;3054;51.204;4.430;2022-09-09T07:20:52;11.07;;;2.17;;
6051;SDS011;3054;51.204;4.430;2022-09-09T07:23:22;10.30;;;2.30;;
6051;SDS011;3054;51.204;4.430;2022-09-09T07:25:49;11.63;;;2.10;;
6051;SDS011;3054;51.204;4.430;2022-09-09T07:28:17;15.83;;;2.73;;
6051;SDS011;3054;51.204;4.430;2022-09-09T07:30:43;9.30;;;2.03;;
6051;SDS011;3054;51.204;4.430;2022-09-09T07:33:20;14.20;;;3.60;;
6051;SDS011;3054;51.204;4.430;2022-09-09T07:35:47;9.23;;;1.97;;
6051;SDS011;3054;51.204;4.430;2022-09-09T07:38:14;13.33;;;2.23;;
6051;SDS011;3054;51.204;4.430;2022-09-09T07:40:41;8.20;;;2.13;;
6051;SDS011;3054;51.204;4.430;2022-09-09T07:43:08;8.40;;;1.80;;
6051;SDS011;3054;51.204;4.430;2022-09-09T07:45:35;15.30;;;2.40;;
6051;SDS011;3054;51.204;4.430;2022-09-09T07:48:03;10.43;;;2.37;;
6051;SDS011;3054;51.204;4.430;2022-09-09T07:50:32;19.60;;;3.63;;
6051;SDS011;3054;51.204;4.430;2022-09-09T07:52:58;16.67;;;2.20;;
6051;SDS011;3054;51.204;4.430;2022-09-09T07:55:25;13.13;;;2.33;;
6051;SDS011;3054;51.204;4.430;2022-09-09T07:57:53;8.60;;;2.10;;
6051;SDS011;3054;51.204;4.430;2022-09-09T08:00:20;27.60;;;2.40;;
6051;SDS011;3054;51.204;4.430;2022-09-09T08:02:47;7.90;;;1.83;;
6051;SDS011;3054;51.204;4.430;2022-09-09T08:05:14;10.37;;;2.10;;
6051;SDS011;3054;51.204;4.430;2022-09-09T08:07:43;13.43;;;2.00;;
6051;SDS011;3054;51.204;4.430;2022-09-09T08:10:10;9.47;;;2.20;;
6051;SDS011;3054;51.204;4.430;2022-09-09T08:12:39;11.60;;;1.70;;
6051;SDS011;3054;51.204;4.430;2022-09-09T08:15:06;7.83;;;1.77;;
6051;SDS011;3054;51.204;4.430;2022-09-09T08:17:34;12.80;;;2.17;;
6051;SDS011;3054;51.204;4.430;2022-09-09T08:20:03;11.33;;;2.30;;
6051;SDS011;3054;51.204;4.430;2022-09-09T08:22:30;16.50;;;2.23;;
6051;SDS011;3054;51.204;4.430;2022-09-09T08:24:59;8.13;;;1.93;;
6051;SDS011;3054;51.204;4.430;2022-09-09T08:27:25;11.33;;;2.00;;
6051;SDS011;3054;51.204;4.430;2022-09-09T08:29:52;18.03;;;2.23;;
6051;SDS011;3054;51.204;4.430;2022-09-09T08:32:21;11.37;;;2.27;;
6051;SDS011;3054;51.204;4.430;2022-09-09T08:34:48;5.57;;;1.73;;
6051;SDS011;3054;51.204;4.430;2022-09-09T08:37:14;10.00;;;2.13;;
6051;SDS011;3054;51.204;4.430;2022-09-09T08:39:41;8.83;;;1.50;;
6051;SDS011;3054;51.204;4.430;2022-09-09T08:42:12;13.10;;;2.73;;
6051;SDS011;3054;51.204;4.430;2022-09-09T08:45:02;11.93;;;2.77;;
6051;SDS011;3054;51.204;4.430;2022-09-09T08:47:42;11.43;;;2.37;;
6051;SDS011;3054;51.204;4.430;2022-09-09T08:50:22;12.07;;;2.33;;
6051;SDS011;3054;51.204;4.430;2022-09-09T08:52:55;11.40;;;2.33;;
6051;SDS011;3054;51.204;4.430;2022-09-09T08:55:28;8.73;;;1.90;;
6051;SDS011;3054;51.204;4.430;2022-09-09T08:58:08;7.00;;;2.43;;
6051;SDS011;3054;51.204;4.430;2022-09-09T09:00:41;8.90;;;2.10;;
6051;SDS011;3054;51.204;4.430;2022-09-09T09:03:32;8.10;;;2.03;;
6051;SDS011;3054;51.204;4.430;2022-09-09T09:06:08;6.20;;;1.80;;
6051;SDS011;3054;51.204;4.430;2022-09-09T09:08:48;12.87;;;3.80;;
6051;SDS011;3054;51.204;4.430;2022-09-09T09:11:25;17.27;;;4.97;;
6051;SDS011;3054;51.204;4.430;2022-09-09T09:13:54;18.20;;;8.53;;
6051;SDS011;3054;51.204;4.430;2022-09-09T09:16:26;18.63;;;8.63;;
6051;SDS011;3054;51.204;4.430;2022-09-09T09:18:58;20.50;;;7.03;;
6051;SDS011;3054;51.204;4.430;2022-09-09T09:21:29;16.53;;;5.63;;
6051;SDS011;3054;51.204;4.430;2022-09-09T09:24:02;15.30;;;5.00;;
6051;SDS011;3054;51.204;4.430;2022-09-09T09:26:34;10.50;;;4.93;;
6051;SDS011;3054;51.204;4.430;2022-09-09T09:29:08;17.03;;;3.53;;
6051;SDS011;3054;51.204;4.430;2022-09-09T09:31:38;5.67;;;2.30;;
6051;SDS011;3054;51.204;4.430;2022-09-09T09:34:05;10.50;;;2.30;;
6051;SDS011;3054;51.204;4.430;2022-09-09T09:36:37;8.90;;;2.47;;
6051;SDS011;3054;51.204;4.430;2022-09-09T09:39:07;12.00;;;2.60;;
6051;SDS011;3054;51.204;4.430;2022-09-09T09:41:35;8.80;;;1.83;;
6051;SDS011;3054;51.204;4.430;2022-09-09T09:44:05;12.63;;;2.97;;
6051;SDS011;3054;51.204;4.430;2022-09-09T09:46:46;9.07;;;1.70;;
6051;SDS011;3054;51.204;4.430;2022-09-09T09:49:12;9.97;;;2.33;;
6051;SDS011;3054;51.204;4.430;2022-09-09T09:51:40;9.53;;;2.20;;
6051;SDS011;3054;51.204;4.430;2022-09-09T09:54:09;11.17;;;1.97;;
6051;SDS011;3054;51.204;4.430;2022-09-09T09:56:43;9.00;;;2.13;;
6051;SDS011;3054;51.204;4.430;2022-09-09T09:59:24;13.83;;;2.10;;
6051;SDS011;3054;51.204;4.430;2022-09-09T10:02:06;13.83;;;2.43;;
6051;SDS011;3054;51.204;4.430;2022-09-09T10:04:43;13.23;;;2.37;;
6051;SDS011;3054;51.204;4.430;2022-09-09T10:07:11;11.33;;;2.43;;
6051;SDS011;3054;51.204;4.430;2022-09-09T10:09:39;9.33;;;2.00;;
6051;SDS011;3054;51.204;4.430;2022-09-09T10:12:09;7.47;;;3.03;;
6051;SDS011;3054;51.204;4.430;2022-09-09T10:14:48;12.30;;;2.47;;
6051;SDS011;3054;51.204;4.430;2022-09-09T10:17:22;10.80;;;2.70;;
6051;SDS011;3054;51.204;4.430;2022-09-09T10:20:00;8.00;;;2.13;;
6051;SDS011;3054;51.204;4.430;2022-09-09T10:22:50;7.60;;;1.67;;
6051;SDS011;3054;51.204;4.430;2022-09-09T10:25:23;7.10;;;2.00;;
6051;SDS011;3054;51.204;4.430;2022-09-09T10:28:11;8.63;;;2.20;;
6051;SDS011;3054;51.204;4.430;2022-09-09T10:31:00;14.93;;;2.60;;
6051;SDS011;3054;51.204;4.430;2022-09-09T10:33:37;7.30;;;1.97;;
6051;SDS011;3054;51.204;4.430;2022-09-09T10:36:17;13.07;;;2.67;;
6051;SDS011;3054;51.204;4.430;2022-09-09T10:38:47;9.40;;;2.07;;
6051;SDS011;3054;51.204;4.430;2022-09-09T10:41:18;8.23;;;1.80;;
6051;SDS011;3054;51.204;4.430;2022-09-09T10:43:53;7.60;;;1.97;;
6051;SDS011;3054;51.204;4.430;2022-09-09T10:46:42;10.67;;;1.90;;
6051;SDS011;3054;51.204;4.430;2022-09-09T10:49:21;7.27;;;2.50;;
6051;SDS011;3054;51.204;4.430;2022-09-09T10:52:03;7.00;;;2.20;;
6051;SDS011;3054;51.204;4.430;2022-09-09T10:54:39;7.60;;;1.97;;
6051;SDS011;3054;51.204;4.430;2022-09-09T10:57:22;8.23;;;1.93;;
6051;SDS011;3054;51.204;4.430;2022-09-09T10:59:57;6.80;;;2.80;;
6051;SDS011;3054;51.204;4.430;2022-09-09T11:02:32;5.40;;;2.00;;
6051;SDS011;3054;51.204;4.430;2022-09-09T11:05:01;8.80;;;1.63;;
6051;SDS011;3054;51.204;4.430;2022-09-09T11:07:33;10.80;;;1.80;;
6051;SDS011;3054;51.204;4.430;2022-09-09T11:10:05;5.97;;;1.50;;
6051;SDS011;3054;51.204;4.430;2022-09-09T11:12:41;5.97;;;1.70;;
6051;SDS011;3054;51.204;4.430;2022-09-09T11:15:14;7.10;;;1.60;;
6051;SDS011;3054;51.204;4.430;2022-09-09T11:17:48;7.00;;;1.90;;
6051;SDS011;3054;51.204;4.430;2022-09-09T11:20:20;4.17;;;1.80;;
6051;SDS011;3054;51.204;4.430;2022-09-09T11:22:48;3.67;;;1.90;;
6051;SDS011;3054;51.204;4.430;2022-09-09T11:25:20;4.23;;;1.57;;
6051;SDS011;3054;51.204;4.430;2022-09-09T11:28:05;11.07;;;1.60;;
6051;SDS011;3054;51.204;4.430;2022-09-09T11:30:46;7.50;;;1.70;;
6051;SDS011;3054;51.204;4.430;2022-09-09T11:33:28;3.70;;;1.50;;
6051;SDS011;3054;51.204;4.430;2022-09-09T11:36:16;5.87;;;1.80;;
6051;SDS011;3054;51.204;4.430;2022-09-09T11:39:02;4.50;;;1.40;;
6051;SDS011;3054;51.204;4.430;2022-09-09T11:41:46;4.90;;;1.70;;
6051;SDS011;3054;51.204;4.430;2022-09-09T11:44:16;7.23;;;1.47;;
6051;SDS011;3054;51.204;4.430;2022-09-09T11:46:46;8.87;;;1.50;;
6051;SDS011;3054;51.204;4.430;2022-09-09T11:49:25;7.80;;;1.90;;
6051;SDS011;3054;51.204;4.430;2022-09-09T11:51:53;6.30;;;1.27;;
6051;SDS011;3054;51.204;4.430;2022-09-09T11:54:28;3.30;;;1.20;;
6051;SDS011;3054;51.204;4.430;2022-09-09T11:56:57;3.73;;;1.03;;
6051;SDS011;3054;51.204;4.430;2022-09-09T11:59:24;4.80;;;1.33;;
6051;SDS011;3054;51.204;4.430;2022-09-09T12:01:55;5.43;;;1.10;;
6051;SDS011;3054;51.204;4.430;2022-09-09T12:04:34;2.83;;;1.07;;
6051;SDS011;3054;51.204;4.430;2022-09-09T12:07:05;4.00;;;1.33;;
6051;SDS011;3054;51.204;4.430;2022-09-09T12:09:52;10.83;;;1.50;;
6051;SDS011;3054;51.204;4.430;2022-09-09T12:12:25;3.27;;;1.17;;
6051;SDS011;3054;51.204;4.430;2022-09-09T12:14:58;4.67;;;1.40;;
6051;SDS011;3054;51.204;4.430;2022-09-09T12:17:28;4.47;;;1.10;;
6051;SDS011;3054;51.204;4.430;2022-09-09T12:20:02;9.93;;;1.23;;
6051;SDS011;3054;51.204;4.430;2022-09-09T12:22:36;3.63;;;1.10;;
6051;SDS011;3054;51.204;4.430;2022-09-09T12:25:15;3.27;;;1.20;;
6051;SDS011;3054;51.204;4.430;2022-09-09T12:27:55;4.03;;;1.70;;
6051;SDS011;3054;51.204;4.430;2022-09-09T12:30:29;3.80;;;1.10;;
6051;SDS011;3054;51.204;4.430;2022-09-09T12:33:07;4.33;;;1.63;;
6051;SDS011;3054;51.204;4.430;2022-09-09T12:35:39;3.37;;;1.67;;
6051;SDS011;3054;51.204;4.430;2022-09-09T12:38:09;2.07;;;1.03;;
6051;SDS011;3054;51.204;4.430;2022-09-09T12:40:41;9.27;;;1.23;;
6051;SDS011;3054;51.204;4.430;2022-09-09T12:43:16;4.20;;;1.23;;
6051;SDS011;3054;51.204;4.430;2022-09-09T12:45:45;6.80;;;1.53;;
6051;SDS011;3054;51.204;4.430;2022-09-09T12:48:14;5.57;;;2.60;;
6051;SDS011;3054;51.204;4.430;2022-09-09T12:50:48;2.67;;;1.13;;
6051;SDS011;3054;51.204;4.430;2022-09-09T12:53:18;5.63;;;1.40;;
6051;SDS011;3054;51.204;4.430;2022-09-09T12:55:52;5.80;;;1.70;;
6051;SDS011;3054;51.204;4.430;2022-09-09T12:58:21;9.83;;;1.83;;
6051;SDS011;3054;51.204;4.430;2022-09-09T13:00:50;5.00;;;1.40;;
6051;SDS011;3054;51.204;4.430;2022-09-09T13:03:18;5.73;;;1.43;;
6051;SDS011;3054;51.204;4.430;2022-09-09T13:05:48;5.90;;;1.30;;
6051;SDS011;3054;51.204;4.430;2022-09-09T13:08:16;1.53;;;1.10;;
6051;SDS011;3054;51.204;4.430;2022-09-09T13:10:46;2.70;;;1.10;;
6051;SDS011;3054;51.204;4.430;2022-09-09T13:13:21;5.10;;;1.57;;
6051;SDS011;3054;51.204;4.430;2022-09-09T13:15:50;6.27;;;1.30;;
6051;SDS011;3054;51.204;4.430;2022-09-09T13:18:21;3.37;;;1.30;;
6051;SDS011;3054;51.204;4.430;2022-09-09T13:20:51;6.07;;;1.67;;
6051;SDS011;3054;51.204;4.430;2022-09-09T13:23:19;4.70;;;1.60;;
6051;SDS011;3054;51.204;4.430;2022-09-09T13:25:53;3.83;;;1.27;;
6051;SDS011;3054;51.204;4.430;2022-09-09T13:28:22;5.60;;;1.37;;
6051;SDS011;3054;51.204;4.430;2022-09-09T13:30:57;7.47;;;1.73;;
6051;SDS011;3054;51.204;4.430;2022-09-09T13:33:31;4.60;;;1.50;;
6051;SDS011;3054;51.204;4.430;2022-09-09T13:36:03;12.90;;;2.37;;
6051;SDS011;3054;51.204;4.430;2022-09-09T13:38:32;3.30;;;1.17;;
6051;SDS011;3054;51.204;4.430;2022-09-09T13:41:03;1.93;;;1.30;;
6051;SDS011;3054;51.204;4.430;2022-09-09T13:43:34;3.43;;;1.20;;
6051;SDS011;3054;51.204;4.430;2022-09-09T13:46:05;3.53;;;1.23;;
6051;SDS011;3054;51.204;4.430;2022-09-09T13:48:56;5.87;;;1.17;;
6051;SDS011;3054;51.204;4.430;2022-09-09T13:51:28;2.60;;;1.10;;
6051;SDS011;3054;51.204;4.430;2022-09-09T13:54:00;3.47;;;1.20;;
6051;SDS011;3054;51.204;4.430;2022-09-09T13:56:27;4.00;;;1.30;;
6051;SDS011;3054;51.204;4.430;2022-09-09T13:58:54;5.03;;;1.50;;
6051;SDS011;3054;51.204;4.430;2022-09-09T14:01:20;5.10;;;1.30;;
6051;SDS011;3054;51.204;4.430;2022-09-09T14:03:48;4.83;;;0.90;;
6051;SDS011;3054;51.204;4.430;2022-09-09T14:06:15;4.17;;;1.10;;
6051;SDS011;3054;51.204;4.430;2022-09-09T14:08:45;2.00;;;0.93;;
6051;SDS011;3054;51.204;4.430;2022-09-09T14:11:12;2.90;;;1.17;;
6051;SDS011;3054;51.204;4.430;2022-09-09T14:13:39;10.87;;;1.30;;
6051;SDS011;3054;51.204;4.430;2022-09-09T14:16:06;2.97;;;1.30;;
6051;SDS011;3054;51.204;4.430;2022-09-09T14:18:33;3.40;;;1.20;;
6051;SDS011;3054;51.204;4.430;2022-09-09T14:21:00;6.07;;;1.40;;
6051;SDS011;3054;51.204;4.430;2022-09-09T14:23:28;1.67;;;1.03;;
6051;SDS011;3054;51.204;4.430;2022-09-09T14:25:57;7.10;;;1.33;;
6051;SDS011;3054;51.204;4.430;2022-09-09T14:28:24;2.90;;;1.10;;
6051;SDS011;3054;51.204;4.430;2022-09-09T14:30:51;6.17;;;1.70;;
6051;SDS011;3054;51.204;4.430;2022-09-09T14:33:18;6.47;;;1.30;;
6051;SDS011;3054;51.204;4.430;2022-09-09T14:35:45;3.23;;;1.00;;
6051;SDS011;3054;51.204;4.430;2022-09-09T14:38:12;4.70;;;1.50;;
6051;SDS011;3054;51.204;4.430;2022-09-09T14:40:39;9.30;;;1.40;;
6051;SDS011;3054;51.204;4.430;2022-09-09T14:43:10;6.70;;;1.20;;
6051;SDS011;3054;51.204;4.430;2022-09-09T14:45:37;7.00;;;1.30;;
6051;SDS011;3054;51.204;4.430;2022-09-09T14:48:04;9.67;;;1.50;;
6051;SDS011;3054;51.204;4.430;2022-09-09T14:50:31;5.73;;;1.40;;
6051;SDS011;3054;51.204;4.430;2022-09-09T14:52:59;3.77;;;1.50;;
6051;SDS011;3054;51.204;4.430;2022-09-09T14:55:26;5.60;;;1.40;;
6051;SDS011;3054;51.204;4.430;2022-09-09T14:57:54;12.80;;;1.60;;
6051;SDS011;3054;51.204;4.430;2022-09-09T15:00:22;4.80;;;1.20;;
6051;SDS011;3054;51.204;4.430;2022-09-09T15:02:51;5.70;;;1.10;;
6051;SDS011;3054;51.204;4.430;2022-09-09T15:05:18;4.27;;;1.40;;
6051;SDS011;3054;51.204;4.430;2022-09-09T15:07:45;6.90;;;1.10;;
6051;SDS011;3054;51.204;4.430;2022-09-09T15:10:13;3.43;;;1.20;;
6051;SDS011;3054;51.204;4.430;2022-09-09T15:12:42;4.77;;;1.27;;
6051;SDS011;3054;51.204;4.430;2022-09-09T15:15:09;4.30;;;1.23;;
6051;SDS011;3054;51.204;4.430;2022-09-09T15:17:37;3.27;;;1.53;;
6051;SDS011;3054;51.204;4.430;2022-09-09T15:20:05;5.27;;;2.13;;
6051;SDS011;3054;51.204;4.430;2022-09-09T15:22:32;3.67;;;1.60;;
6051;SDS011;3054;51.204;4.430;2022-09-09T15:25:01;7.07;;;2.10;;
6051;SDS011;3054;51.204;4.430;2022-09-09T15:27:29;7.43;;;1.57;;
6051;SDS011;3054;51.204;4.430;2022-09-09T15:29:56;4.17;;;1.63;;
6051;SDS011;3054;51.204;4.430;2022-09-09T15:32:23;11.60;;;1.60;;
6051;SDS011;3054;51.204;4.430;2022-09-09T15:34:51;3.23;;;1.53;;
6051;SDS011;3054;51.204;4.430;2022-09-09T15:37:19;4.63;;;1.37;;
6051;SDS011;3054;51.204;4.430;2022-09-09T15:39:45;10.93;;;1.73;;
6051;SDS011;3054;51.204;4.430;2022-09-09T15:42:13;3.57;;;1.50;;
6051;SDS011;3054;51.204;4.430;2022-09-09T15:44:40;3.63;;;1.70;;